arxmliv
arxmliv build tool
 
KWARC group
LaTeXML
About
   
 

Detailed info

Back to Homepage

List of missing_macros

No. Date Filename num_warningnum_errornum_xmargok_xmargnum_xmathok_xmathMissing macros
138801 2013-03-04 12:15:05 /0401/hep-ph.0401086 8110000[\Abstract, \ArticleName, \EmailD, \ShortArticleName, \FirstPageHeading, \Address, \LastPageEnding, \Author, \AuthorNameForContents, \ArticleNameForContents, \AuthorNameForHeading].
138802 2013-03-04 12:14:58 /0401/hep-ph.0401090 2070000[\Vertex, \Text, \Line, \GlueArc, \Photon, \DashLine, \Gluon].
138803 2013-03-04 12:14:45 /0401/hep-ph.0401068 060000[\extrasenglish, \Line, \Vertex, \Photon, \dateenglish, \captionsenglish].
138804 2013-03-04 12:14:45 /0401/hep-ph.0401149 2020000[\abstracts]; 1 missing file[ws.sty].
138805 2013-03-04 12:14:37 /0401/hep-ph.0401124 010000[\toctitle].
138806 2013-03-04 12:14:32 /0401/hep-ph.0401125 1910000[\theappendix].
138807 2013-03-04 12:14:28 /0401/hep-ph.0401128 010000[\institute].
138808 2013-03-04 12:14:14 /0401/hep-ph.0401079 5510000[\layoutstyle].
138809 2013-03-04 12:14:12 /0401/hep-ph.0401093 920000[\institute]; 1 missing file[colordvi.sty].
138810 2013-03-04 12:14:01 /0401/hep-ph.0401144 1120000[\extralineskip, \newlength].
138811 2013-03-04 12:13:54 /0401/hep-ph.0401187 730000[\SetTexturesEPSFSpecial, \HideDisplacementBoxes]; 1 missing file[BoxedEPS].
138812 2013-03-04 12:11:35 /0401/hep-ex.0401003 3077830000[\xspace, \ifzbstpl, \lesssim, \makezeustitle, {alignat}, \ifzbstnp, \prepnum, \ifzeusbst, {sidewaystable}, \text, \ifzbstepj, \ifzdrftbst, \includegraphics, \draftversion, Align, \gtrsim, {alignat*}]; 1 missing file[./LaTeX/zeus/zeus_paper.cls].
138813 2013-03-04 12:09:59 /0401/hep-ph.0401043 42270000[{sidewaystable}, \psfrag]; 1 missing file[proc.sty].
138814 2013-03-04 12:09:09 /0401/hep-ph.0401002 24140000[\GBox, \BCirc, \Line, \ArrowArc, \Photon, \ArrowArcn, \Text, \ArrowLine, \GCirc, \DashCArc, \SetScale, \SetOffset, \PhotonArc, \DashLine].
138815 2013-03-04 12:09:06 /0401/hep-ph.0401055 23730000[\spline, \closecurve]; 1 missing file[proc.sty].
138816 2013-03-04 12:08:16 /0401/hep-ex.0401023 87340000[\address, \titlefoot, {shortabs}, \epsfig, \CERNpreprint, \epsffile, \epsfysize, \epsfxsize]; 1 missing file[dp_delphi.sty].
138817 2013-03-04 12:08:02 /0401/hep-ex.0401017 38260000[\xspace, \ifzbstpl, \lesssim, \makezeustitle, \epsffile, \ifzbstnp, \ifzbstepj, \prepnum, \ifzdrftbst, \ifzeusbst, \text, \epsfysize, \epsfxsize]; 1 missing file[zeus_paper.cls].
138818 2013-03-04 12:07:50 /0401/hep-ex.0401035 1410000[\smaller].
138819 2013-03-04 12:07:40 /0401/hep-lat.0401030 101150000[\Text, \Vertex, \ArrowLine, \LongArrow, {sidetable}, \Gluon]; 1 missing file[side.sty].
138820 2013-03-04 12:07:16 /0401/gr-qc.0401106 42710000[\theappendix].
138821 2013-03-04 12:07:13 /0401/hep-ex.0401006 2010000[\smaller].
138822 2013-03-04 12:07:10 /0401/hep-ex.0401031 1780000[\citet, {Enumerate}]; 1 missing file[jac2003.cls].
138823 2013-03-04 12:06:19 /0401/hep-ex.0401025 29140000[\includegraphics, \address, \titlefoot, {shortabs}, \rotatebox, \epsfig, \CERNpreprint]; 1 missing file[dp_delphi.sty].
138824 2013-03-04 12:06:19 /0401/hep-ph.0401027 2550000[\includegraphics, \psfig]; 1 missing file[ws.sty].
138825 2013-03-04 12:06:07 /0401/hep-ex.0401028 1310000[\smaller].
138826 2013-03-04 12:06:06 /0401/gr-qc.0401124 1040000[\epsfbox, \abstracts, \epsfxsize]; 1 missing file[ws.sty].
138827 2013-03-04 12:06:01 /0401/hep-lat.0401001 1340000[\epsfbox, \abstracts, \epsfxsize]; 1 missing file[ws.sty].
138828 2013-03-04 12:05:59 /0401/hep-ex.0401022 4190000[\includegraphics, \address, \titlefoot, \subfigure, {shortabs}, \epsfig, \CERNpreprint]; 1 missing file[dp_delphi.sty].
138829 2013-03-04 12:05:54 /0401/hep-lat.0401010 0100000[\epsfbox, \abstracts, \epsfxsize]; 1 missing file[ws.sty].
138830 2013-03-04 12:05:52 /0401/hep-lat.0401005 1410000[\toctitle].
138831 2013-03-04 12:05:47 /0401/gr-qc.0401104 180000[\address, \abstracts, \epsffile, \epsfxsize]; 1 missing file[ws-procs9x6_New.cls].
138832 2013-03-04 12:05:47 /0401/hep-lat.0401018 2060000[\Text, \Vertex, \ArrowArc, \Line, \SetColor, \DashArrowLine].
138833 2013-03-04 12:05:42 /0401/hep-ph.0401005 36320000[\affil, \articletitle, \upperandlowercase, {chapthebibliography}, \chaptitlerunninghead, \normallatexbib, \nochapequationnumber].
138834 2013-03-04 12:05:36 /0401/hep-ph.0401058 6220000[{theacknowledgments}, \layoutstyle].
138835 2013-03-04 12:05:26 /0401/hep-ph.0401044 120000[\Text, \ArrowLine].
138836 2013-03-04 12:05:21 /0401/hep-lat.0401032 1930000[\abstracts, \refcite]; 1 missing file[ws.sty].
138837 2013-03-04 12:05:17 /0401/hep-ex.0401021 920000[{theacknowledgments}, \layoutstyle].
138838 2013-03-04 12:05:05 /0401/hep-ph.0401025 040000[\Text, \ArrowLine, \DashArrowArcn, \DashArrowArc].
138839 2013-03-04 12:04:56 /0401/hep-ex.0401033 2060000[\epsfbox, \abstracts, \tbl, \epsfxsize].
138840 2013-03-04 12:04:50 /0401/gr-qc.0401095 020000[\abstracts]; 1 missing file[ws.sty].
138841 2013-03-04 12:04:50 /0401/hep-ex.0401034 2110000[{turn}].
138842 2013-03-04 12:04:48 /0401/hep-ph.0401028 210000[\citen].
138843 2013-03-04 12:04:41 /0401/gr-qc.0401127 120000[\abstracts]; 1 missing file[ws.sty].
138844 2013-03-04 12:04:41 /0401/hep-ph.0401004 320000[\abstracts]; 1 missing file[ws.sty].
138845 2013-03-04 12:04:39 /0401/gr-qc.0401094 020000[\abstracts]; 1 missing file[ws.sty].
138846 2013-03-04 12:04:33 /0401/hep-ph.0401015 1110000[\@cite].
138847 2013-03-04 12:01:55 /0401/cs.0401013 19320000[\theappendix].
138848 2013-03-04 12:00:36 /0401/cond-mat.0401617 18810000[\psfrag].
138849 2013-03-04 12:00:21 /0401/cond-mat.0401613 64120000[\copyrightpage, \submityear, \thesisadviser, \submitmonth, \listofappendices, \thesisauthor, {preface}, \thechapter, \department, \@currentID, {thesisbody}, \degree]; 1 missing file[thesis.cls].
138850 2013-03-04 12:00:11 /0401/cs.0401022 6870000[\citeauthoryear, {keywords}, {comment}, \email, \affiliation, \citeN, \inplus]; 1 missing file[tlp.cls].
138851 2013-03-04 12:00:03 /0401/gr-qc.0401067 34710000[\cyrd, \CYRII, \inst, \CYRE, \CYRERY, \CYRB, \adr, \cyryi, \cyrerev, \CYRU, \CYRC, \cyrk, \cyro, \cyrz, \cyrch, \CYRK, \cyrsh, \avtor, \CYRD, \cyrf, \rezume, \cyrg, \udk, \CYRYI, \cyrs, \cyrshch, \CYRP, \anot, \CYRH, \cyrery, \CYRF, \CYRG, \cyrc, \CYRO,
138852 2013-03-04 11:59:32 /0401/cs.0401021 15250000[\citeauthoryear, {keywords}, \email, \affiliation, \citeN]; 1 missing file[tlp.cls].
138853 2013-03-04 11:59:32 /0401/gr-qc.0401055 59150000[\PACSes, \idest, \atque, \dateenglish, \PACSit, \from, \extrasenglish, \instlist, \captionsenglish]; 1 missing file[scrpage.sty].
138854 2013-03-04 11:58:58 /0401/gr-qc.0401081 9010000[\theorembodyfont].
138855 2013-03-04 11:58:57 /0401/cond-mat.0401626 1750000[\affil, \tocauthor, \thechapter, \@currentID, \authorafterheading].
138856 2013-03-04 11:58:54 /0401/cs.0401012 49520000[\EdgeL, \LargePicture, \EdgeR, \varotimes, \VCDraw, \address, \StackTwoLabels, \LoopS, \ForthBackOffset, \addressmark, \revision, \IOL, \received, \varoast, \FinalR, {VCPicture}, \LoopN, \LoopSE, \keywords, \FinalL, \ArcR, \InitialR, \ArcL, \State, \revi
138857 2013-03-04 11:58:54 /0401/cs.0401020 140000[\authorblockN, \pubid, \authorblockA, \IEEEoverridecommandlockouts]; 1 missing file[IEEEtran.cls].
138858 2013-03-04 11:58:49 /0401/gr-qc.0401033 11150000[\psfrag, {psfrags}].
138859 2013-03-04 11:58:47 /0401/cond-mat.0401653 12490000[\affil, {keywords}, \articletitle, \upperandlowercase, \email, {chapthebibliography}, \normallatexbib].
138860 2013-03-04 11:58:42 /0401/gr-qc.0401015 270000[\epsfbox, \gtrsim, \lesssim, \abstracts, \tbl, \epsfxsize]; 1 missing file[ws.sty].
138861 2013-03-04 11:58:33 /0401/cs.0401011 12310000[{pf*}].
138862 2013-03-04 11:58:29 /0401/cs.0401003 5730000[\@ignoretrue].
138863 2013-03-04 11:58:29 /0401/gr-qc.0401005 030000[\Qlb, \Qcb, \FRAME].
138864 2013-03-04 11:58:23 /0401/cs.0401029 26350000[\setyaxis, \legend, {barenv}, \setyname, \setxname, \setnumberpos, \setdepth, \setxaxis]; 1 missing file[bar.sty].
138865 2013-03-04 11:58:21 /0401/cond-mat.0401638 010000[\sslash].
138866 2013-03-04 11:58:17 /0401/gr-qc.0401082 640000[\epsfbox, \abstracts, \epsfxsize]; 1 missing file[ws.sty].
138867 2013-03-04 11:58:03 /0401/cs.0401015 6010000[\theappendix].
138868 2013-03-04 11:58:02 /0401/cond-mat.0401623 050000[\kword, \abst, \inst, \recdate, \citen].
138869 2013-03-04 11:58:02 /0401/gr-qc.0401091 040000[\catchline, \abstracts, \ttbl]; 1 missing file[ws.sty].
138870 2013-03-04 11:57:56 /0401/cs.0401008 050000[\category, \terms, {acks}, {bottomstuff}, \keywords].
138871 2013-03-04 11:57:55 /0401/cond-mat.0401640 1010000[\toctitle].
138872 2013-03-04 11:57:54 /0401/cs.0401010 5910000[{comment}].
138873 2013-03-04 11:57:50 /0401/cond-mat.0401642 380000[\email, \@affiliation, \onefigure, \etal].
138874 2013-03-04 11:57:45 /0401/cs.0401004 150000[\affil, \correspondence, \firstpage, {acknowledgements}, \pubyear]; 1 missing file[icrc2.cls].
138875 2013-03-04 11:57:36 /0401/gr-qc.0401087 060000[Align, \abstracts, \xymatrix, \ar]; 2 missing files[ws.sty, xy.sty].
138876 2013-03-04 11:57:16 /0401/gr-qc.0401038 030000[\abstracts, \refcite]; 1 missing file[ws.sty].
138877 2013-03-04 11:57:14 /0401/gr-qc.0401040 030000[\abstracts, \refcite]; 1 missing file[ws.sty].
138878 2013-03-04 11:57:06 /0401/cond-mat.0401605 6220000[\slabel, Align, {subeqnarray}].
138879 2013-03-04 11:56:48 /0401/cond-mat.0401597 250000[\psfrag].
138880 2013-03-04 11:56:47 /0401/cond-mat.0401595 140000[\kword, \abst, \inst, \recdate].
138881 2013-03-04 11:56:45 /0401/cond-mat.0401615 030000[\extrasenglish, \dateenglish, \captionsenglish].
138882 2013-03-04 11:56:34 /0401/cond-mat.0401614 290000[\email, \@affiliation, \onefigure, \chem, \etal].
138883 2013-03-04 11:56:32 /0401/cond-mat.0401583 1310000[\psfrag].
138884 2013-03-04 11:56:17 /0401/cond-mat.0401587 030000[\extrasenglish, \dateenglish, \captionsenglish].
138885 2013-03-04 11:55:53 /0401/cond-mat.0401563 7530000[{acknowledgments}, {keywords}, \articletitle, \upperandlowercase, {chapthebibliography}, \altaffiltext, \normallatexbib].
138886 2013-03-04 11:55:38 /0401/cond-mat.0401562 240000[\address, \epsfbox, \abstracts, \epsfxsize]; 1 missing file[Rinton-P9x6.cls].
138887 2013-03-04 11:55:04 /0401/cond-mat.0401545 32420000[\affil, \articletitle, \upperandlowercase, {chapthebibliography}, \normallatexbib].
138888 2013-03-04 11:54:19 /0401/cond-mat.0401323 9960000[\thechapter, \setlongtables, \thechapter@ID]; 2 missing files[afterpage.sty, dmjthesis.cls].
138889 2013-03-04 11:53:54 /0401/cond-mat.0401506 240000[\authorinfo, \skiplinehalf, \acknowledgments, \keywords]; 1 missing file[spie.cls].
138890 2013-03-04 11:53:45 /0401/cond-mat.0401507 1250000[\@affiliation].
138891 2013-03-04 11:53:30 /0401/cond-mat.0401498 930000[\kword, \abst, \inst].
138892 2013-03-04 11:52:41 /0401/cond-mat.0401473 230000[{history}, \psfig, \received].
138893 2013-03-04 11:51:48 /0401/cond-mat.0401453 610000[\layoutstyle].
138894 2013-03-04 11:51:48 /0401/cond-mat.0401456 720000[\@affiliation].
138895 2013-03-04 11:51:41 /0401/cond-mat.0401455 410000[\psfrag].
138896 2013-03-04 11:51:31 /0401/cond-mat.0401448 220000[\affil]; 1 missing file[authblk.sty].
138897 2013-03-04 11:51:27 /0401/cond-mat.0401444 120000[\Braket, \ket].
138898 2013-03-04 11:51:25 /0401/cond-mat.0401446 340000[\kword, \abst, \inst, \recdate].
138899 2013-03-04 11:50:30 /0401/cond-mat.0401411 1450000[\kword, \abst, \inst, \recdate, \acknowledgments].
138900 2013-03-04 11:50:26 /0401/cond-mat.0401424 320000[\PACS]; 1 missing file[size11.clo.sty].
138901 2013-03-04 11:50:15 /0401/cond-mat.0401409 030000[\extrasenglish, \dateenglish, \captionsenglish].
138902 2013-03-04 11:50:09 /0401/cond-mat.0401413 310000[\psfrag].
138903 2013-03-04 11:50:01 /0401/cond-mat.0401414 0160000[\catchline, {history}, {romanlist}, \psfig, \keywords, \received]; 1 missing file[ws.sty].
138904 2013-03-04 11:49:56 /0401/cond-mat.0401401 2820000[\@affiliation].
138905 2013-03-04 11:49:13 /0401/cond-mat.0401388 010000[\psfrag].
138906 2013-03-04 11:49:08 /0401/cond-mat.0401396 4610000[{acknowledgments}, \affil, {keywords}, \articletitle, {chapthebibliography}, \chaptitlerunninghead, \email, \normallatexbib]; 1 missing file[kapedbk.cls].
138907 2013-03-04 11:48:50 /0401/cond-mat.0401377 040000[\unit, \Qlb, \Qcb, \FRAME].
138908 2013-03-04 11:47:54 /0401/cond-mat.0401346 210000[\psfrag].
138909 2013-03-04 11:47:02 /0401/cond-mat.0401340 050000[\@affiliation, \etal].
138910 2013-03-04 11:46:49 /0401/cond-mat.0401322 030000[\extrasenglish, \dateenglish, \captionsenglish].
138911 2013-03-04 11:46:48 /0401/cond-mat.0401317 1520000[\psfrag, \citen].
138912 2013-03-04 11:46:40 /0401/cond-mat.0401328 0130000[\Issue, \inst, \Month, \Reviseddate, \Receiveddate, \DOIsuffix, \Volume, \pagespan, \subjclass, \Copyrightissue, \Dateposted, \Accepteddate, \Year].
138913 2013-03-04 11:46:28 /0401/cond-mat.0401319 970000[{biographynophoto}, \pubid, {keywords}, \pubidadjcol, \PARstart, \IEEEpeerreviewmaketitle, \IEEEmembership]; 1 missing file[IEEEtran.cls].
138914 2013-03-04 11:45:53 /0401/cond-mat.0401298 820000[\mathds]; 1 missing file[marvosym.sty].
138915 2013-03-04 11:45:43 /0401/cond-mat.0401288 260000[\email, \@affiliation].
138916 2013-03-04 11:45:43 /0401/cond-mat.0401291 030000[\extrasenglish, \dateenglish, \captionsenglish].
138917 2013-03-04 11:45:31 /0401/cond-mat.0401279 730000[\@affiliation, \onefigure].
138918 2013-03-04 11:45:29 /0401/cond-mat.0401299 030000[\extrasenglish, \dateenglish, \captionsenglish].
138919 2013-03-04 11:45:16 /0401/cond-mat.0401280 230000[\@affiliation, \onefigure].
138920 2013-03-04 11:45:13 /0401/cond-mat.0401283 010000[\psfrag].
138921 2013-03-04 11:44:57 /0401/cond-mat.0401274 230000[\@affiliation, \onefigure].
138922 2013-03-04 11:44:41 /0401/cond-mat.0401260 460000[\@affiliation, \onefigure].
138923 2013-03-04 11:44:22 /0401/cond-mat.0401266 060000[\email, \@affiliation, \onefigure, \etal].
138924 2013-03-04 11:44:06 /0401/cond-mat.0401218 4730000[\theappendix].
138925 2013-03-04 11:43:54 /0401/cond-mat.0401238 7940000[\affil, \tocauthor, \thechapter@ID, \authorafterheading].
138926 2013-03-04 11:43:10 /0401/cond-mat.0401216 0170000[\twofigures, \twoimages, \@affiliation].
138927 2013-03-04 11:42:44 /0401/cond-mat.0401212 550000[\@affiliation].
138928 2013-03-04 11:42:11 /0401/cond-mat.0401182 5570000[\affil, {keywords}, \articletitle, \email, {chapthebibliography}, \normallatexbib, \sphline]; 1 missing file[kapedbk.cls].
138929 2013-03-04 11:42:04 /0401/cond-mat.0401184 610000[\TCItag].
138930 2013-03-04 11:41:22 /0401/cond-mat.0401178 0140000[\ccode, \catchline, {romanlist}, \epsfig, \tbl, \refcite, \keywords, {history}, \revised, \received].
138931 2013-03-04 11:41:19 /0401/cond-mat.0401177 360000[\twoimages, \@affiliation].
138932 2013-03-04 11:41:00 /0401/cond-mat.0401165 040000[\theappendix, \address, \email, \homepage].
138933 2013-03-04 11:40:55 /0401/cond-mat.0401166 390000[\sodtitle, \dates, \lat, \theappendix, \rauthor, \sodauthor, \address, \PACS, \rtitle].
138934 2013-03-04 11:40:19 /0401/cond-mat.0401146 830000[\eqsec]; 1 missing file[size11.clo.sty].
138935 2013-03-04 11:40:14 /0401/cond-mat.0401141 010000[\captionsfrancais].
138936 2013-03-04 11:39:42 /0401/cond-mat.0401133 660000[\vchcaption, \affil, \thechapter, \@currentID, {vchfigure}, \authorafterheading].
138937 2013-03-04 11:39:35 /0401/cond-mat.0401130 3310000[\psfrag].
138938 2013-03-04 11:38:49 /0401/cond-mat.0401126 7560000[\Issue, \inst, \Month, \Reviseddate, \Receiveddate, \DOIsuffix, \Volume, \pagespan, \subjclass, \Copyrightissue, \Dateposted, \Accepteddate, \Year, {acknowledgement}].
138939 2013-03-04 11:37:23 /0401/cond-mat.0401064 44130000[\Issue, \inst, \Month, \Reviseddate, \Receiveddate, \DOIsuffix, \Volume, \keywords, \pagespan, \subjclass, \Copyrightissue, \Accepteddate, \Year].
138940 2013-03-04 11:36:20 /0401/cond-mat.0401061 3230000[\approxeq, \curdelta, \curpi].
138941 2013-03-04 11:36:11 /0401/cond-mat.0401059 30400000[\affil, {keywords}, \articletitle, \email, {chapthebibliography}, \normallatexbib].
138942 2013-03-04 11:35:47 /0401/cond-mat.0401038 030000[\extrasenglish, \dateenglish, \captionsenglish].
138943 2013-03-04 11:34:54 /0401/cond-mat.0401030 19220000[{acknowledgments}, \affil, \articletitle, \chapappendix, {chapthebibliography}, \chaptitlerunninghead, \normallatexbib]; 1 missing file[kapedbk.cls].
138944 2013-03-04 11:34:32 /0401/cond-mat.0401022 10420000[\dint, \dsum].
138945 2013-03-04 11:33:56 /0401/astro-ph.0401637 75250000[\neptune, \uranus, \jupiter, \astrosun, \saturn].
138946 2013-03-04 11:33:52 /0401/cond-mat.0401024 710000[\listfiles].
138947 2013-03-04 11:33:20 /0401/astro-ph.0401633 5130000[\@captype, \midrule, \the\@captype, \arcsecond, \cmidrule, \afterpage, \toprule, \bottomrule]; 1 missing file[afterpage.sty].
138948 2013-03-04 11:32:42 /0401/astro-ph.0401638 030000[\theappendix].
138949 2013-03-04 11:32:24 /0401/astro-ph.0401640 0120000[\rhead, \headnote, \yearofpublic, \correspondence, \institute, \lhead, \Volume, \volume, \pages, \Pagespan, \acknowledgements, \Year].
138950 2013-03-04 11:32:02 /0401/astro-ph.0401630 1910000[\theappendix].
138951 2013-03-04 11:31:20 /0401/astro-ph.0401632 520000[\abstracts]; 1 missing file[ws.sty].
138952 2013-03-04 11:30:37 /0401/astro-ph.0401620 1110000[\theappendix].
138953 2013-03-04 11:30:08 /0401/astro-ph.0401617 280000[\affil, {keywords}, \articletitle, \kluwerbib, \upperandlowercase, \email, \anxx, {chapthebibliography}].
138954 2013-03-04 11:29:48 /0401/astro-ph.0401624 040000[\abstracts, \tbl, \refcite]; 1 missing file[ws.sty].
138955 2013-03-04 11:29:45 /0401/astro-ph.0401625 0110000[\affil, \apj, \aj, \ga, \la, \mnras, \plotone, \reference, {references}, \acknowledgements]; 1 missing file[newpasp.sty].
138956 2013-03-04 11:29:41 /0401/astro-ph.0401608 0150000[\affil, \pra, \apj, \apjl, \ga, \prl, \aap, \la, \apjs, \mnras, \pasp, \plotone, {references}, \araa]; 1 missing file[newpasp.sty].
138957 2013-03-04 11:29:35 /0401/astro-ph.0401615 510000[\citeauthoryear].
138958 2013-03-04 11:29:27 /0401/astro-ph.0401612 040000[\extrasenglish, \geometry, \dateenglish, \captionsenglish].
138959 2013-03-04 11:29:10 /0401/astro-ph.0401616 0150000[\affil, \apj, \reference, {references}, \aap, \plottwo]; 1 missing file[newpasp.sty].
138960 2013-03-04 11:28:49 /0401/astro-ph.0401600 0190000[\extrasenglish, \SetYear, \adjustfinalcols, \shorttitle, \email, \SetConfTitle, \arcsec, \indexauthor, \shortauthor, \altaffilmark, \dateenglish, \listofauthors, \addkeyword, \altaffiltext, \fulladdresses, \captionsenglish].
138961 2013-03-04 11:28:48 /0401/astro-ph.0401587 010000[\sq].
138962 2013-03-04 11:28:23 /0401/astro-ph.0401586 030000[\pcite, \scite]; 1 missing file[mncite.sty].
138963 2013-03-04 11:28:11 /0401/astro-ph.0401590 080000[\epsfbox, \abstracts, \epsfxsize]; 1 missing file[ws.sty].
138964 2013-03-04 11:28:08 /0401/astro-ph.0401542 89150000[\prefacesection, \tablespagetrue, \figurespagetrue, \submitdate, \supervisor, \afterpreface, \beforepreface, \coguide, \copyrightfalse, \hod]; 3 missing files[timesfonts.sty, duthesis.sty, tarun.sty].
138965 2013-03-04 11:27:44 /0401/astro-ph.0401577 770000[\catchline, {history}, \revised, \refcite, \keywords, \received]; 1 missing file[ws.sty].
138966 2013-03-04 11:27:30 /0401/astro-ph.0401579 750000[\AuthorIndex, \BookTitle, \makeauthorindex, \AuthorContents, \CopyRight].
138967 2013-03-04 11:27:25 /0401/astro-ph.0401566 210000[\theappendix].
138968 2013-03-04 11:27:09 /0401/astro-ph.0401565 31220000[\pacs, \addressiv, \authori, \addressvi, \authoriii, \addressi, \suppl, \headtitle, \refnum, \addressv, \lastevenhead, \authorvi, \addressiii, \headauthor, \authorii, \keywords, \includegraphics, \authoriv, \daterec, \authorv, \addressii]; 1 missing file
138969 2013-03-04 11:27:01 /0401/astro-ph.0401568 180000[\surname, \institute, {opening}, {article}, \keywords, \newdisplay, \runningauthor, {acknowledgements}].
138970 2013-03-04 11:26:47 /0401/astro-ph.0401570 010000[\toctitle].
138971 2013-03-04 11:25:57 /0401/astro-ph.0401557 0110000[\affil, \apj, \aj, \plotfiddle, \acknowledgments, \mnras, \plotone, \reference, {references}, \plottwo]; 1 missing file[newpasp.sty].
138972 2013-03-04 11:25:26 /0401/astro-ph.0401562 040000[\affil, \reference, {references}]; 1 missing file[newpasp.sty].
138973 2013-03-04 11:25:10 /0401/astro-ph.0401517 4590000[\starttext, \thechapter, \qualification, \thechapter@ID, {declaration}, {acknowledgements}]; 3 missing files[cover, myeq.sty, xr-hyper.sty].
138974 2013-03-04 11:24:48 /0401/astro-ph.0401543 3170000[\submitted].
138975 2013-03-04 11:24:45 /0401/astro-ph.0401539 010000[\submitted].
138976 2013-03-04 11:24:32 /0401/astro-ph.0401538 0150000[\affil, \reference, \plotone, {references}, \plotfiddle, \plottwo]; 1 missing file[newpasp.sty].
138977 2013-03-04 11:24:27 /0401/astro-ph.0401541 6120000[\citeauthoryear, \surname, \runningauthor, \institute, {opening}, {article}, \keywords, \newdisplay].
138978 2013-03-04 11:24:10 /0401/astro-ph.0401528 120000[\address, \abstracts]; 1 missing file[preprint.cls].
138979 2013-03-04 11:23:25 /0401/astro-ph.0401503 710000[\toctitle].
138980 2013-03-04 11:23:01 /0401/astro-ph.0401511 250000[\affil, \apj, \reference, {references}]; 1 missing file[newpasp.sty].
138981 2013-03-04 11:22:56 /0401/astro-ph.0401513 310000[\setkeys].
138982 2013-03-04 11:22:55 /0401/astro-ph.0401493 2180000[\affil, \tableline, \aaps, \plotfiddle, \aap, \acknowledgments, \apjs, \reference, {references}, \plottwo]; 1 missing file[newpasp.sty].
138983 2013-03-04 11:22:43 /0401/astro-ph.0401494 040000[\affil, \reference, {references}]; 1 missing file[newpasp.sty].
138984 2013-03-04 11:22:33 /0401/astro-ph.0401497 0110000[\citeauthoryear, \citeyear, \surname, \institute, \runningtitle, {opening}, {article}, \runningauthor, \citeauthor, \acknowledgements, \inlinecite].
138985 2013-03-04 11:22:29 /0401/astro-ph.0401483 1230000[\psfig]; 2 missing files[psfig.tex, apjfonts.sty].
138986 2013-03-04 11:22:24 /0401/astro-ph.0401489 580000[\theappendix, \apjs, \mnras, \apj, \apjl, \aap]; 2 missing files[apjfonts.sty, journals.sty].
138987 2013-03-04 11:22:22 /0401/astro-ph.0401485 3260000[\affil, \apj, \lesssim, \pasj, \aaps, \aap, \nat, \endfoot, \Accepted, \email, \endlastfoot, \KeyWords, \aj, {longtable}, \endhead, \Received, \mnras, Align, \apjs, \FigureFile, \gtrsim, \citet, \SetRunningHead]; 1 missing file[pasj00.cls].
138988 2013-03-04 11:22:20 /0401/astro-ph.0401484 020000[{theacknowledgments}, \layoutstyle].
138989 2013-03-04 11:21:57 /0401/astro-ph.0401476 520000[\epsfbox, \epsfxsize].
138990 2013-03-04 11:21:47 /0401/astro-ph.0401472 050000[\affil, \reference, {references}, \acknowledgments]; 1 missing file[newpasp.sty].
138991 2013-03-04 11:21:46 /0401/astro-ph.0401473 0140000[{acknowledgments}, \affil, {keywords}, \articletitle, \upperandlowercase, \anxx, {chapthebibliography}, \altaffilmark, \kluwerbib].
138992 2013-03-04 11:21:40 /0401/astro-ph.0401481 1160000[\affil, \figcaption, \plotone, \epsscale, \keywords]; 1 missing file[emulapj.sty].
138993 2013-03-04 11:21:19 /0401/astro-ph.0401451 410000[\theappendix].
138994 2013-03-04 11:21:15 /0401/astro-ph.0401465 520000[{theacknowledgments}, \layoutstyle].
138995 2013-03-04 11:21:10 /0401/astro-ph.0401469 0220000[\arcmin, \affil, \apj, \tableline, \plotfiddle, \aap, \acknowledgments, \mnras, \reference, {references}, \plottwo]; 1 missing file[newpasp.sty].
138996 2013-03-04 11:21:02 /0401/astro-ph.0401456 150000[\citeyear, \citep, \citeauthor, \citet]; 1 missing file[natbib2.sty].
138997 2013-03-04 11:20:59 /0401/astro-ph.0401471 0120000[\citeauthoryear, \surname, \institute, {opening}, {article}, \tabcapfont, \keywords, \newdisplay, \lsim, \runningauthor, \gsim, \acknowledgements].
138998 2013-03-04 11:20:39 /0401/astro-ph.0401439 220000[\epsffile, \epsfxsize].
138999 2013-03-04 11:20:34 /0401/astro-ph.0401459 110000[{sidewaystable*}].
139000 2013-03-04 11:20:28 /0401/astro-ph.0401445 020000[\epsffile, \epsfxsize].
<<< >>>

[0] [200] [400] [600] [800] [1000] [1200] [1400] [1600] [1800] [2000] [2200] [2400] [2600] [2800] [3000] [3200] [3400] [3600] [3800] [4000] [4200] [4400] [4600] [4800] [5000] [5200] [5400] [5600] [5800] [6000] [6200] [6400] [6600] [6800] [7000] [7200] [7400] [7600] [7800] [8000] [8200] [8400] [8600] [8800] [9000] [9200] [9400] [9600] [9800] [10000] [10200] [10400] [10600] [10800] [11000] [11200] [11400] [11600] [11800] [12000] [12200] [12400] [12600] [12800] [13000] [13200] [13400] [13600] [13800] [14000] [14200] [14400] [14600] [14800] [15000] [15200] [15400] [15600] [15800] [16000] [16200] [16400] [16600] [16800] [17000] [17200] [17400] [17600] [17800] [18000] [18200] [18400] [18600] [18800] [19000] [19200] [19400] [19600] [19800] [20000] [20200] [20400] [20600] [20800] [21000] [21200] [21400] [21600] [21800] [22000] [22200] [22400] [22600] [22800] [23000] [23200] [23400] [23600] [23800] [24000] [24200] [24400] [24600] [24800] [25000] [25200] [25400] [25600] [25800] [26000] [26200] [26400] [26600] [26800] [27000] [27200] [27400] [27600] [27800] [28000] [28200] [28400] [28600] [28800] [29000] [29200] [29400] [29600] [29800] [30000] [30200] [30400] [30600] [30800] [31000] [31200] [31400] [31600] [31800] [32000] [32200] [32400] [32600] [32800] [33000] [33200] [33400] [33600] [33800] [34000] [34200] [34400] [34600] [34800] [35000] [35200] [35400] [35600] [35800] [36000] [36200] [36400] [36600] [36800] [37000] [37200] [37400] [37600] [37800] [38000] [38200] [38400] [38600] [38800] [39000] [39200] [39400] [39600] [39800] [40000] [40200] [40400] [40600] [40800] [41000] [41200] [41400] [41600] [41800] [42000] [42200] [42400] [42600] [42800] [43000] [43200] [43400] [43600] [43800] [44000] [44200] [44400] [44600] [44800] [45000] [45200] [45400] [45600] [45800] [46000] [46200] [46400] [46600] [46800] [47000] [47200] [47400] [47600] [47800] [48000] [48200] [48400] [48600] [48800] [49000] [49200] [49400] [49600] [49800] [50000] [50200] [50400] [50600] [50800] [51000] [51200] [51400] [51600] [51800] [52000] [52200] [52400] [52600] [52800] [53000] [53200] [53400] [53600] [53800] [54000] [54200] [54400] [54600] [54800] [55000] [55200] [55400] [55600] [55800] [56000] [56200] [56400] [56600] [56800] [57000] [57200] [57400] [57600] [57800] [58000] [58200] [58400] [58600] [58800] [59000] [59200] [59400] [59600] [59800] [60000] [60200] [60400] [60600] [60800] [61000] [61200] [61400] [61600] [61800] [62000] [62200] [62400] [62600] [62800] [63000] [63200] [63400] [63600] [63800] [64000] [64200] [64400] [64600] [64800] [65000] [65200] [65400] [65600] [65800] [66000] [66200] [66400] [66600] [66800] [67000] [67200] [67400] [67600] [67800] [68000] [68200] [68400] [68600] [68800] [69000] [69200] [69400] [69600] [69800] [70000] [70200] [70400] [70600] [70800] [71000] [71200] [71400] [71600] [71800] [72000] [72200] [72400] [72600] [72800] [73000] [73200] [73400] [73600] [73800] [74000] [74200] [74400] [74600] [74800] [75000] [75200] [75400] [75600] [75800] [76000] [76200] [76400] [76600] [76800] [77000] [77200] [77400] [77600] [77800] [78000] [78200] [78400] [78600] [78800] [79000] [79200] [79400] [79600] [79800] [80000] [80200] [80400] [80600] [80800] [81000] [81200] [81400] [81600] [81800] [82000] [82200] [82400] [82600] [82800] [83000] [83200] [83400] [83600] [83800] [84000] [84200] [84400] [84600] [84800] [85000] [85200] [85400] [85600] [85800] [86000] [86200] [86400] [86600] [86800] [87000] [87200] [87400] [87600] [87800] [88000] [88200] [88400] [88600] [88800] [89000] [89200] [89400] [89600] [89800] [90000] [90200] [90400] [90600] [90800] [91000] [91200] [91400] [91600] [91800] [92000] [92200] [92400] [92600] [92800] [93000] [93200] [93400] [93600] [93800] [94000] [94200] [94400] [94600] [94800] [95000] [95200] [95400] [95600] [95800] [96000] [96200] [96400] [96600] [96800] [97000] [97200] [97400] [97600] [97800] [98000] [98200] [98400] [98600] [98800] [99000] [99200] [99400] [99600] [99800] [100000] [100200] [100400] [100600] [100800] [101000] [101200] [101400] [101600] [101800] [102000] [102200] [102400] [102600] [102800] [103000] [103200] [103400] [103600] [103800] [104000] [104200] [104400] [104600] [104800] [105000] [105200] [105400] [105600] [105800] [106000] [106200] [106400] [106600] [106800] [107000] [107200] [107400] [107600] [107800] [108000] [108200] [108400] [108600] [108800] [109000] [109200] [109400] [109600] [109800] [110000] [110200] [110400] [110600] [110800] [111000] [111200] [111400] [111600] [111800] [112000] [112200] [112400] [112600] [112800] [113000] [113200] [113400] [113600] [113800] [114000] [114200] [114400] [114600] [114800] [115000] [115200] [115400] [115600] [115800] [116000] [116200] [116400] [116600] [116800] [117000] [117200] [117400] [117600] [117800] [118000] [118200] [118400] [118600] [118800] [119000] [119200] [119400] [119600] [119800] [120000] [120200] [120400] [120600] [120800] [121000] [121200] [121400] [121600] [121800] [122000] [122200] [122400] [122600] [122800] [123000] [123200] [123400] [123600] [123800] [124000] [124200] [124400] [124600] [124800] [125000] [125200] [125400] [125600] [125800] [126000] [126200] [126400] [126600] [126800] [127000] [127200] [127400] [127600] [127800] [128000] [128200] [128400] [128600] [128800] [129000] [129200] [129400] [129600] [129800] [130000] [130200] [130400] [130600] [130800] [131000] [131200] [131400] [131600] [131800] [132000] [132200] [132400] [132600] [132800] [133000] [133200] [133400] [133600] [133800] [134000] [134200] [134400] [134600] [134800] [135000] [135200] [135400] [135600] [135800] [136000] [136200] [136400] [136600] [136800] [137000] [137200] [137400] [137600] [137800] [138000] [138200] [138400] [138600] [138800] [139000] [139200] [139400] [139600] [139800] [140000] [140200] [140400] [140600] [140800] [141000] [141200] [141400] [141600] [141800] [142000] [142200] [142400] [142600] [142800] [143000] [143200] [143400] [143600] [143800] [144000] [144200] [144400] [144600] [144800] [145000] [145200] [145400] [145600] [145800] [146000] [146200] [146400] [146600] [146800] [147000] [147200] [147400] [147600] [147800] [148000] [148200] [148400] [148600] [148800] [149000] [149200] [149400] [149600] [149800] [150000] [150200] [150400] [150600] [150800] [151000] [151200] [151400] [151600] [151800] [152000] [152200] [152400] [152600] [152800] [153000] [153200] [153400] [153600] [153800] [154000] [154200] [154400] [154600] [154800] [155000] [155200] [155400] [155600] [155800] [156000] [156200] [156400] [156600] [156800] [157000] [157200] [157400] [157600] [157800] [158000] [158200] [158400] [158600] [158800] [159000] [159200] [159400] [159600] [159800] [160000] [160200] [160400] [160600] [160800] [161000] [161200] [161400] [161600] [161800] [162000] [162200] [162400] [162600] [162800] [163000] [163200] [163400] [163600] [163800] [164000] [164200] [164400] [164600]
 
  The service has been written by
Heinrich Stamerjohanns